createdAt,value
2019-01-13T00:00:37.942Z,5.45
2019-01-13T00:02:38.964Z,5.51
2019-01-13T00:04:39.985Z,5.45
2019-01-13T00:06:42.909Z,5.48
2019-01-13T00:08:43.675Z,5.50
2019-01-13T00:10:46.428Z,5.50
2019-01-13T00:12:47.525Z,5.45
2019-01-13T00:14:48.531Z,5.46
2019-01-13T00:16:49.520Z,5.50
2019-01-13T00:18:50.324Z,5.47
2019-01-13T00:20:51.334Z,5.48
2019-01-13T00:22:53.239Z,5.56
2019-01-13T00:24:54.186Z,5.63
2019-01-13T00:26:56.326Z,5.71
2019-01-13T00:28:57.310Z,5.69
2019-01-13T00:31:00.031Z,5.72
2019-01-13T00:33:06.857Z,5.75
2019-01-13T00:35:07.738Z,5.75
2019-01-13T00:37:09.576Z,5.70
2019-01-13T00:39:10.632Z,5.71
2019-01-13T00:41:11.354Z,5.61
2019-01-13T00:43:13.431Z,5.57
2019-01-13T00:45:15.452Z,5.56
2019-01-13T00:47:17.202Z,5.61
2019-01-13T00:49:17.958Z,5.66
2019-01-13T00:51:19.927Z,5.72
2019-01-13T00:53:20.967Z,5.59
2019-01-13T00:55:21.963Z,5.56
2019-01-13T00:57:23.011Z,5.53
2019-01-13T00:59:23.982Z,5.54
2019-01-13T01:01:24.931Z,5.47
2019-01-13T01:03:25.809Z,5.37
2019-01-13T01:05:27.641Z,5.34
2019-01-13T01:07:28.545Z,5.46
2019-01-13T01:09:29.210Z,5.35
2019-01-13T01:11:30.922Z,5.35
2019-01-13T01:16:40.579Z,5.41
2019-01-13T01:18:41.527Z,5.27
2019-01-13T01:20:42.223Z,5.32
2019-01-13T01:22:43.334Z,5.24
2019-01-13T01:24:44.094Z,5.30
2019-01-13T01:26:44.864Z,5.37
2019-01-13T01:28:45.983Z,5.38
2019-01-13T01:30:46.852Z,5.30
2019-01-13T01:32:47.864Z,5.32
2019-01-13T01:34:49.597Z,5.28
2019-01-13T01:36:57.438Z,5.24
2019-01-13T01:38:58.317Z,5.35
2019-01-13T01:40:59.038Z,5.38
2019-01-13T01:43:00.096Z,5.30
2019-01-13T01:45:00.814Z,5.36
2019-01-13T01:47:01.729Z,5.38
2019-01-13T01:49:03.717Z,5.40
2019-01-13T01:51:06.750Z,5.45
2019-01-13T01:53:07.792Z,5.50
2019-01-13T01:55:35.090Z,5.46
2019-01-13T01:58:14.321Z,5.43
2019-01-13T02:00:24.628Z,5.51
2019-01-13T02:02:25.611Z,5.54
2019-01-13T02:04:28.661Z,5.53
2019-01-13T02:06:30.630Z,5.53
2019-01-13T02:08:31.583Z,5.53
2019-01-13T02:10:33.736Z,5.48
2019-01-13T02:12:34.663Z,5.55
2019-01-13T02:14:35.527Z,5.55
2019-01-13T02:16:36.572Z,5.50
2019-01-13T02:18:38.526Z,5.46
2019-01-13T02:20:39.437Z,5.42
2019-01-13T02:22:40.356Z,5.43
2019-01-13T02:24:41.308Z,5.38
2019-01-13T02:26:42.130Z,5.35
2019-01-13T02:28:43.027Z,5.30
2019-01-13T02:30:49.111Z,5.32
2019-01-13T02:32:46.630Z,5.36
2019-01-13T02:34:47.727Z,5.38
2019-01-13T02:36:48.785Z,5.36
2019-01-13T02:38:49.483Z,5.34
2019-01-13T02:40:50.484Z,5.43
2019-01-13T02:42:51.392Z,5.43
2019-01-13T02:44:52.043Z,5.47
2019-01-13T02:46:53.028Z,5.52
2019-01-13T02:48:53.966Z,5.50
2019-01-13T02:50:54.693Z,5.43
2019-01-13T02:52:55.730Z,5.45
2019-01-13T02:54:56.691Z,5.45
2019-01-13T02:56:59.397Z,5.48
2019-01-13T02:59:00.521Z,5.40
2019-01-13T03:01:01.444Z,5.41
2019-01-13T03:03:02.376Z,5.41
2019-01-13T03:05:06.806Z,5.35
2019-01-13T03:07:08.026Z,5.44
2019-01-13T03:09:46.667Z,5.54
2019-01-13T03:12:05.270Z,5.50
2019-01-13T03:14:06.136Z,5.42
2019-01-13T03:16:08.270Z,5.43
2019-01-13T03:18:09.518Z,5.41
2019-01-13T03:20:11.624Z,5.32
2019-01-13T03:22:12.377Z,5.33
2019-01-13T03:24:13.345Z,5.36
2019-01-13T03:26:14.358Z,5.37
2019-01-13T03:28:15.076Z,5.41
2019-01-13T03:30:19.302Z,5.38
2019-01-13T03:32:21.039Z,5.42
2019-01-13T03:34:21.992Z,5.36
2019-01-13T03:36:23.124Z,5.39
2019-01-13T03:38:23.870Z,5.40
2019-01-13T03:40:24.793Z,5.39
2019-01-13T03:42:25.827Z,5.38
2019-01-13T03:44:26.539Z,5.37
2019-01-13T03:46:27.499Z,5.38
2019-01-13T03:48:32.395Z,5.37
2019-01-13T03:50:34.268Z,5.42
2019-01-13T03:52:36.228Z,5.43
2019-01-13T03:54:37.190Z,5.44
2019-01-13T03:56:38.090Z,5.44
2019-01-13T03:58:38.789Z,5.49
2019-01-13T04:00:39.668Z,5.51
2019-01-13T04:02:40.365Z,5.55
2019-01-13T04:04:41.333Z,5.49
2019-01-13T04:06:42.261Z,5.55
2019-01-13T04:08:44.956Z,5.54
2019-01-13T04:10:45.832Z,5.49
2019-01-13T04:12:46.564Z,5.46
2019-01-13T04:14:48.530Z,5.53
2019-01-13T04:16:49.575Z,5.49
2019-01-13T04:18:53.338Z,5.53
2019-01-13T04:20:53.966Z,5.50
2019-01-13T04:22:57.018Z,5.46
2019-01-13T04:24:57.808Z,5.43
2019-01-13T04:26:58.480Z,5.50
2019-01-13T04:28:59.197Z,5.53
2019-01-13T04:31:00.348Z,5.52
2019-01-13T04:33:01.411Z,5.55
2019-01-13T04:35:04.036Z,5.50
2019-01-13T04:37:06.061Z,5.51
2019-01-13T04:39:14.756Z,5.56
2019-01-13T04:41:15.828Z,5.56
2019-01-13T04:43:17.572Z,5.52
2019-01-13T04:45:18.287Z,5.65
2019-01-13T04:47:19.017Z,5.69
2019-01-13T04:49:19.701Z,5.66
2019-01-13T04:51:20.356Z,5.69
2019-01-13T04:53:23.249Z,5.63
2019-01-13T04:55:24.263Z,5.62
2019-01-13T04:57:24.989Z,5.61
2019-01-13T04:59:25.756Z,5.65
2019-01-13T05:01:34.381Z,5.60
2019-01-13T05:03:31.706Z,5.64
2019-01-13T05:05:34.314Z,5.78
2019-01-13T05:07:35.085Z,5.65
2019-01-13T05:09:35.709Z,5.65
2019-01-13T05:11:36.753Z,5.62
2019-01-13T05:13:37.414Z,5.70
2019-01-13T05:15:38.449Z,5.69
2019-01-13T05:17:39.251Z,5.66
2019-01-13T05:19:40.020Z,5.65
2019-01-13T05:21:40.977Z,5.71
2019-01-13T05:23:41.932Z,5.68
2019-01-13T05:25:42.938Z,5.69
2019-01-13T05:27:44.289Z,5.77
2019-01-13T05:29:47.176Z,5.69
2019-01-13T05:31:47.916Z,5.67
2019-01-13T05:33:48.583Z,5.71
2019-01-13T05:35:50.479Z,5.72
2019-01-13T05:37:51.275Z,5.71
2019-01-13T05:39:51.934Z,5.75
2019-01-13T05:41:52.864Z,5.79
2019-01-13T05:43:53.614Z,5.74
2019-01-13T05:45:54.587Z,5.84
2019-01-13T05:47:55.580Z,5.81
2019-01-13T05:49:56.593Z,5.83
2019-01-13T05:52:04.617Z,5.81
2019-01-13T05:54:06.589Z,5.90
2019-01-13T05:56:07.307Z,5.84
2019-01-13T05:58:10.310Z,5.88
2019-01-13T06:00:14.402Z,5.77
2019-01-13T06:02:22.073Z,5.80
2019-01-13T06:04:25.044Z,5.78
2019-01-13T06:06:29.015Z,5.77
2019-01-13T06:08:32.021Z,5.80
2019-01-13T06:10:32.718Z,5.77
2019-01-13T06:12:33.718Z,5.77
2019-01-13T06:14:36.700Z,5.80
2019-01-13T06:16:37.741Z,5.74
2019-01-13T06:18:38.765Z,5.77
2019-01-13T06:20:40.850Z,5.85
2019-01-13T06:22:41.570Z,5.82
2019-01-13T06:24:42.309Z,5.85
2019-01-13T06:26:43.421Z,5.79
2019-01-13T06:28:44.372Z,5.86
2019-01-13T06:30:55.134Z,5.89
2019-01-13T06:32:56.177Z,5.86
2019-01-13T06:34:56.956Z,5.85
2019-01-13T06:36:57.756Z,5.85
2019-01-13T06:39:05.966Z,5.82
2019-01-13T06:41:07.921Z,5.84
2019-01-13T06:43:12.834Z,5.85
2019-01-13T06:45:16.022Z,5.93
2019-01-13T06:47:20.792Z,5.92
2019-01-13T06:49:21.418Z,5.93
2019-01-13T06:51:28.930Z,5.92
2019-01-13T06:53:29.646Z,6.04
2019-01-13T06:55:32.556Z,6.05
2019-01-13T06:57:33.432Z,5.99
2019-01-13T06:59:34.087Z,6.01
2019-01-13T07:01:34.838Z,6.03
2019-01-13T07:03:35.871Z,6.05
2019-01-13T07:05:36.900Z,6.07
2019-01-13T07:07:37.624Z,6.15
2019-01-13T07:09:38.561Z,6.12
2019-01-13T07:11:40.557Z,6.15
2019-01-13T07:13:41.215Z,6.17
2019-01-13T07:15:41.938Z,6.17
2019-01-13T07:17:42.871Z,6.23
2019-01-13T07:19:43.919Z,6.26
2019-01-13T07:21:44.708Z,6.21
2019-01-13T07:23:45.418Z,6.18
2019-01-13T07:25:46.094Z,6.22
2019-01-13T07:27:46.861Z,6.19
2019-01-13T07:29:47.547Z,6.15
2019-01-13T07:31:48.196Z,6.13
2019-01-13T07:33:49.246Z,6.20
2019-01-13T07:35:55.228Z,6.11
2019-01-13T07:37:57.207Z,6.11
2019-01-13T07:39:58.243Z,6.10
2019-01-13T07:41:59.218Z,6.12
2019-01-13T07:43:59.944Z,6.13
2019-01-13T07:46:00.975Z,6.27
2019-01-13T07:48:01.566Z,6.24
2019-01-13T07:50:05.533Z,6.21
2019-01-13T07:52:08.290Z,6.30
2019-01-13T07:54:09.371Z,6.20
2019-01-13T07:56:10.296Z,6.29
2019-01-13T07:58:12.308Z,6.22
2019-01-13T08:00:19.593Z,6.23
2019-01-13T08:02:20.603Z,6.26
2019-01-13T08:04:21.336Z,6.33
2019-01-13T08:06:22.337Z,6.26
2019-01-13T08:08:23.440Z,6.30
2019-01-13T08:10:24.461Z,6.30
2019-01-13T08:12:25.216Z,6.25
2019-01-13T08:14:25.855Z,6.25
2019-01-13T08:16:26.875Z,6.29
2019-01-13T08:18:27.834Z,6.31
2019-01-13T08:20:29.404Z,6.25
2019-01-13T08:22:30.376Z,6.26
2019-01-13T08:24:31.280Z,6.26
2019-01-13T08:26:32.232Z,6.29
2019-01-13T08:28:33.240Z,6.38
2019-01-13T08:30:34.085Z,6.38
2019-01-13T08:32:35.011Z,6.37
2019-01-13T08:34:35.764Z,6.42
2019-01-13T08:36:36.694Z,6.43
2019-01-13T08:38:37.676Z,6.42
2019-01-13T08:40:38.766Z,6.42
2019-01-13T08:42:39.729Z,6.50
2019-01-13T08:44:40.770Z,6.53
2019-01-13T08:46:41.671Z,6.42
2019-01-13T08:48:42.749Z,6.51
2019-01-13T08:50:43.870Z,6.51
2019-01-13T08:52:44.953Z,6.51
2019-01-13T08:54:47.000Z,6.45
2019-01-13T08:56:47.761Z,6.52
2019-01-13T08:58:48.786Z,6.56
2019-01-13T09:00:49.896Z,6.55
2019-01-13T09:02:51.026Z,6.48
2019-01-13T09:04:51.752Z,6.51
2019-01-13T09:06:52.829Z,6.64
2019-01-13T09:08:53.554Z,6.51
2019-01-13T09:10:54.284Z,6.54
2019-01-13T09:12:56.913Z,6.56
2019-01-13T09:14:57.562Z,6.56
2019-01-13T09:16:58.629Z,6.56
2019-01-13T09:18:59.708Z,6.56
2019-01-13T09:21:00.589Z,6.57
2019-01-13T09:23:01.704Z,6.62
2019-01-13T09:25:04.885Z,6.66
2019-01-13T09:27:05.843Z,6.72
2019-01-13T09:29:06.796Z,6.74
2019-01-13T09:31:07.815Z,6.84
2019-01-13T09:33:08.485Z,6.84
2019-01-13T09:35:09.705Z,6.86
2019-01-13T09:37:10.465Z,6.91
2019-01-13T09:39:11.205Z,6.84
2019-01-13T09:41:11.979Z,6.92
2019-01-13T09:43:12.917Z,6.86
2019-01-13T09:45:13.711Z,6.82
2019-01-13T09:47:14.469Z,6.85
2019-01-13T09:49:15.484Z,6.93
2019-01-13T09:51:16.660Z,7.00
2019-01-13T09:53:17.412Z,7.02
2019-01-13T09:55:19.648Z,7.08
2019-01-13T09:57:20.303Z,7.06
2019-01-13T09:59:21.248Z,7.05
2019-01-13T10:01:22.145Z,7.03
2019-01-13T10:03:22.877Z,7.03
2019-01-13T10:05:24.057Z,7.05
2019-01-13T10:07:25.267Z,7.04
2019-01-13T10:09:26.227Z,7.05
2019-01-13T10:11:27.173Z,7.09
2019-01-13T10:13:28.204Z,7.12
2019-01-13T10:15:29.928Z,7.12
2019-01-13T10:17:30.777Z,7.13
2019-01-13T10:19:31.750Z,7.14
2019-01-13T10:21:32.472Z,7.12
2019-01-13T10:23:33.159Z,7.13
2019-01-13T10:25:34.099Z,7.14
2019-01-13T10:27:35.022Z,7.15
2019-01-13T10:29:37.085Z,7.13
2019-01-13T10:31:38.843Z,7.15
2019-01-13T10:33:39.567Z,7.16
2019-01-13T10:35:42.589Z,7.17
2019-01-13T10:37:43.465Z,7.20
2019-01-13T10:39:44.558Z,7.17
2019-01-13T10:41:45.383Z,7.20
2019-01-13T10:43:46.233Z,7.18
2019-01-13T10:45:47.161Z,7.21
2019-01-13T10:47:48.048Z,7.24
2019-01-13T10:49:48.720Z,7.26
2019-01-13T10:51:49.570Z,7.26
2019-01-13T10:53:50.557Z,7.32
2019-01-13T10:55:51.493Z,7.38
2019-01-13T10:57:53.517Z,7.39
2019-01-13T10:59:54.577Z,7.39
2019-01-13T11:01:58.834Z,7.42
2019-01-13T11:03:59.626Z,7.39
2019-01-13T11:06:00.421Z,7.41
2019-01-13T11:08:02.723Z,7.37
2019-01-13T11:10:18.532Z,7.38
2019-01-13T11:12:19.692Z,7.35
2019-01-13T11:14:22.118Z,7.34
2019-01-13T11:16:22.995Z,7.35
2019-01-13T11:18:24.829Z,7.32
2019-01-13T11:20:28.851Z,7.35
2019-01-13T11:22:29.865Z,7.33
2019-01-13T11:24:30.670Z,7.32
2019-01-13T11:26:31.401Z,7.32
2019-01-13T11:28:32.553Z,7.37
2019-01-13T11:30:34.261Z,7.40
2019-01-13T11:32:34.979Z,7.42
2019-01-13T11:34:35.936Z,7.46
2019-01-13T11:36:37.742Z,7.52
2019-01-13T11:38:38.509Z,7.52
2019-01-13T11:40:39.204Z,7.55
2019-01-13T11:42:49.431Z,7.49
2019-01-13T11:44:51.361Z,7.66
2019-01-13T11:46:52.106Z,7.63
2019-01-13T11:48:52.936Z,7.60
2019-01-13T11:50:53.685Z,7.67
2019-01-13T11:52:56.257Z,7.65
2019-01-13T11:54:57.495Z,7.68
2019-01-13T11:56:58.460Z,7.73
2019-01-13T11:59:00.840Z,7.68
2019-01-13T12:01:01.727Z,7.68
2019-01-13T12:03:06.815Z,7.70
2019-01-13T12:05:07.990Z,7.69
2019-01-13T12:07:09.067Z,7.70
2019-01-13T12:09:15.954Z,7.70
2019-01-13T12:11:17.777Z,7.70
2019-01-13T12:13:24.547Z,7.70
2019-01-13T12:15:25.382Z,7.72
2019-01-13T12:17:35.341Z,7.69
2019-01-13T12:19:36.115Z,7.74
2019-01-13T12:21:37.091Z,7.74
2019-01-13T12:23:37.770Z,7.73
2019-01-13T12:25:38.944Z,7.76
2019-01-13T12:27:39.745Z,7.82
2019-01-13T12:29:40.855Z,7.81
2019-01-13T12:31:41.633Z,7.81
2019-01-13T12:33:42.399Z,7.82
2019-01-13T12:35:43.325Z,7.81
2019-01-13T12:37:44.136Z,7.84
2019-01-13T12:39:46.194Z,7.82
2019-01-13T12:41:47.011Z,7.83
2019-01-13T12:43:48.227Z,7.83
2019-01-13T12:45:49.034Z,7.86
2019-01-13T12:47:50.424Z,7.85
2019-01-13T12:49:51.215Z,7.84
2019-01-13T12:51:52.326Z,7.86
2019-01-13T12:53:53.271Z,7.86
2019-01-13T12:55:54.316Z,7.84
2019-01-13T12:57:55.235Z,7.85
2019-01-13T12:59:55.967Z,7.83
2019-01-13T13:01:56.792Z,7.91
2019-01-13T13:03:57.711Z,7.95
2019-01-13T13:05:59.065Z,7.94
2019-01-13T13:08:00.725Z,7.97
2019-01-13T13:10:03.557Z,7.96
2019-01-13T13:12:04.774Z,7.96
2019-01-13T13:14:05.884Z,7.96
2019-01-13T13:16:08.036Z,8.01
2019-01-13T13:18:09.566Z,8.04
2019-01-13T13:20:13.255Z,8.04
2019-01-13T13:22:14.267Z,8.05
2019-01-13T13:24:15.366Z,8.06
2019-01-13T13:26:16.490Z,8.04
2019-01-13T13:28:19.120Z,8.02
2019-01-13T13:30:23.108Z,8.12
2019-01-13T13:32:24.229Z,8.10
2019-01-13T13:34:25.390Z,8.02
2019-01-13T13:36:26.461Z,8.01
2019-01-13T13:38:27.673Z,7.99
2019-01-13T13:40:30.008Z,8.01
2019-01-13T13:42:31.133Z,8.07
2019-01-13T13:44:32.379Z,8.03
2019-01-13T13:46:33.592Z,8.00
2019-01-13T13:48:34.744Z,8.01
2019-01-13T13:50:36.022Z,8.03
2019-01-13T13:52:37.224Z,8.02
2019-01-13T13:54:38.459Z,8.03
2019-01-13T13:56:39.616Z,8.07
2019-01-13T13:58:40.561Z,8.10
2019-01-13T14:00:41.302Z,8.12
2019-01-13T14:02:42.169Z,8.12
2019-01-13T14:04:43.185Z,8.07
2019-01-13T14:06:44.108Z,8.04
2019-01-13T14:08:45.117Z,8.05
2019-01-13T14:10:45.931Z,8.06
2019-01-13T14:12:47.068Z,8.05
2019-01-13T14:14:50.589Z,8.06
2019-01-13T14:16:52.969Z,8.08
2019-01-13T14:18:54.304Z,8.07
2019-01-13T14:20:55.132Z,8.08
2019-01-13T14:22:55.952Z,8.09
2019-01-13T14:24:56.655Z,8.05
2019-01-13T14:26:57.331Z,8.07
2019-01-13T14:28:58.067Z,8.03
2019-01-13T14:30:59.000Z,8.02
2019-01-13T14:33:00.130Z,8.03
2019-01-13T14:35:07.497Z,8.09
2019-01-13T14:37:08.343Z,8.11
2019-01-13T14:39:09.495Z,8.08
2019-01-13T14:41:10.511Z,8.06
2019-01-13T14:43:11.463Z,8.03
2019-01-13T14:45:14.711Z,8.02
2019-01-13T14:47:16.211Z,8.01
2019-01-13T14:49:16.924Z,8.05
2019-01-13T14:51:18.058Z,8.06
2019-01-13T14:53:21.228Z,8.03
2019-01-13T14:55:22.107Z,8.03
2019-01-13T14:57:23.063Z,8.05
2019-01-13T14:59:23.829Z,8.06
2019-01-13T15:01:25.859Z,8.07
2019-01-13T15:04:16.813Z,8.06
2019-01-13T15:06:28.936Z,8.04
2019-01-13T15:08:29.852Z,8.04
2019-01-13T15:10:32.865Z,8.06
2019-01-13T15:12:33.605Z,8.07
2019-01-13T15:14:34.628Z,8.07
2019-01-13T15:16:39.018Z,8.06
2019-01-13T15:18:40.253Z,8.12
2019-01-13T15:20:44.167Z,8.10
2019-01-13T15:22:45.406Z,8.07
2019-01-13T15:24:50.065Z,8.08
2019-01-13T15:26:51.820Z,8.03
2019-01-13T15:28:52.781Z,7.97
2019-01-13T15:30:53.873Z,7.92
2019-01-13T15:32:55.070Z,7.95
2019-01-13T15:34:56.216Z,8.00
2019-01-13T15:36:58.391Z,8.03
2019-01-13T15:38:59.602Z,7.97
2019-01-13T15:41:00.742Z,7.95
2019-01-13T15:43:01.875Z,7.99
2019-01-13T15:45:06.030Z,8.00
2019-01-13T15:47:07.207Z,7.93
2019-01-13T15:49:08.376Z,7.93
2019-01-13T15:51:09.087Z,8.05
2019-01-13T15:53:10.253Z,7.93
2019-01-13T15:55:11.104Z,8.04
2019-01-13T15:57:11.821Z,8.02
2019-01-13T15:59:12.966Z,8.02
2019-01-13T16:01:13.944Z,8.08
2019-01-13T16:03:15.148Z,8.06
2019-01-13T16:05:16.318Z,8.16
2019-01-13T16:07:17.382Z,8.12
2019-01-13T16:09:18.160Z,8.11
2019-01-13T16:11:18.829Z,8.08
2019-01-13T16:13:19.800Z,8.11
2019-01-13T16:15:20.950Z,8.02
2019-01-13T16:17:22.036Z,7.96
2019-01-13T16:19:23.641Z,7.94
2019-01-13T16:21:24.615Z,7.94
2019-01-13T16:23:25.352Z,7.93
2019-01-13T16:25:25.984Z,7.95
2019-01-13T16:27:26.905Z,8.02
2019-01-13T16:29:27.851Z,8.07
2019-01-13T16:31:28.525Z,8.05
2019-01-13T16:33:29.295Z,8.13
2019-01-13T16:35:30.093Z,8.00
2019-01-13T16:37:30.851Z,8.00
2019-01-13T16:39:31.573Z,7.96
2019-01-13T16:41:32.290Z,8.06
2019-01-13T16:43:32.934Z,8.18
2019-01-13T16:45:33.844Z,8.16
2019-01-13T16:47:34.809Z,8.20
2019-01-13T16:49:35.735Z,8.18
2019-01-13T16:51:36.498Z,8.18
2019-01-13T16:53:37.440Z,8.15
2019-01-13T16:55:38.452Z,8.24
2019-01-13T16:57:39.126Z,8.32
2019-01-13T16:59:42.303Z,8.39
2019-01-13T17:01:43.173Z,8.28
2019-01-13T17:03:44.177Z,8.31
2019-01-13T17:05:45.012Z,8.24
2019-01-13T17:07:46.220Z,8.30
2019-01-13T17:09:47.183Z,8.31
2019-01-13T17:11:48.219Z,8.33
2019-01-13T17:13:49.895Z,8.29
2019-01-13T17:15:50.826Z,8.24
2019-01-13T17:17:51.587Z,8.22
2019-01-13T17:19:52.378Z,8.15
2019-01-13T17:21:53.507Z,8.16
2019-01-13T17:23:54.309Z,8.22
2019-01-13T17:25:55.349Z,8.32
2019-01-13T17:27:56.468Z,8.40
2019-01-13T17:29:57.772Z,8.47
2019-01-13T17:31:58.709Z,8.35
2019-01-13T17:34:01.206Z,8.34
2019-01-13T17:36:02.480Z,8.37
2019-01-13T17:38:04.200Z,8.33
2019-01-13T17:40:13.885Z,8.29
2019-01-13T17:42:14.971Z,8.32
2019-01-13T17:44:15.777Z,8.28
2019-01-13T17:46:17.550Z,8.25
2019-01-13T17:48:24.620Z,8.33
2019-01-13T17:50:26.644Z,8.22
2019-01-13T17:52:31.836Z,8.17
2019-01-13T17:54:34.158Z,8.30
2019-01-13T17:56:35.416Z,8.28
2019-01-13T17:58:36.211Z,8.21
2019-01-13T18:03:12.792Z,8.14
2019-01-13T18:05:15.626Z,8.16
2019-01-13T18:07:19.964Z,8.17
2019-01-13T18:09:21.080Z,8.18
2019-01-13T18:11:22.092Z,8.14
2019-01-13T18:13:28.230Z,8.05
2019-01-13T18:15:30.421Z,7.98
2019-01-13T18:17:34.952Z,7.97
2019-01-13T18:19:36.113Z,8.08
2019-01-13T18:21:38.164Z,8.15
2019-01-13T18:23:39.372Z,8.19
2019-01-13T18:25:40.664Z,8.15
2019-01-13T18:27:46.116Z,8.38
2019-01-13T18:29:45.031Z,8.26
2019-01-13T18:31:48.934Z,8.21
2019-01-13T18:33:49.861Z,8.31
2019-01-13T18:35:51.312Z,8.34
2019-01-13T18:37:54.508Z,8.18
2019-01-13T18:39:55.742Z,8.26
2019-01-13T18:42:04.198Z,8.02
2019-01-13T18:44:05.238Z,8.03
2019-01-13T18:46:06.591Z,7.96
2019-01-13T18:48:08.839Z,8.10
2019-01-13T18:50:17.747Z,8.04
2019-01-13T18:52:18.935Z,8.17
2019-01-13T18:54:19.897Z,8.22
2019-01-13T18:56:26.213Z,8.25
2019-01-13T18:58:26.955Z,8.05
2019-01-13T19:00:28.893Z,7.96
2019-01-13T19:05:04.565Z,8.04
2019-01-13T19:07:10.113Z,7.99
2019-01-13T19:09:08.779Z,8.07
2019-01-13T19:11:13.510Z,8.17
2019-01-13T19:13:41.338Z,8.06
2019-01-13T19:15:44.315Z,8.22
2019-01-13T19:17:45.150Z,8.15
2019-01-13T19:19:45.797Z,8.09
2019-01-13T19:21:46.898Z,8.06
2019-01-13T19:23:47.956Z,7.94
2019-01-13T19:25:49.029Z,7.91
2019-01-13T19:27:50.073Z,7.99
2019-01-13T19:29:50.810Z,7.95
2019-01-13T19:31:52.891Z,7.93
2019-01-13T19:39:06.566Z,7.90
2019-01-13T19:41:07.543Z,7.86
2019-01-13T19:43:08.316Z,7.92
2019-01-13T19:45:15.586Z,7.88
2019-01-13T19:47:17.773Z,7.82
2019-01-13T19:49:18.815Z,7.76
2019-01-13T19:54:22.558Z,7.89
2019-01-13T19:56:23.767Z,8.00
2019-01-13T19:58:27.847Z,7.94
2019-01-13T20:00:31.323Z,7.90
2019-01-13T20:02:35.187Z,8.09
2019-01-13T20:04:36.331Z,7.98
2019-01-13T20:06:37.156Z,7.93
2019-01-13T20:08:38.003Z,8.09
2019-01-13T20:10:41.590Z,7.97
2019-01-13T20:12:42.426Z,8.13
2019-01-13T20:14:43.533Z,8.18
2019-01-13T20:16:44.377Z,8.18
2019-01-13T20:18:45.062Z,8.14
2019-01-13T20:26:21.854Z,8.19
2019-01-13T20:34:01.433Z,7.47
2019-01-13T20:36:02.459Z,6.56
2019-01-13T20:38:05.937Z,6.15
2019-01-13T20:40:13.005Z,5.92
2019-01-13T20:42:16.176Z,5.83
2019-01-13T20:44:17.114Z,5.72
2019-01-13T20:46:19.999Z,5.56
2019-01-13T20:52:09.355Z,5.54
2019-01-13T20:54:10.356Z,5.44
2019-01-13T20:56:11.543Z,5.39
2019-01-13T20:58:15.292Z,5.39
2019-01-13T21:00:21.791Z,5.28
2019-01-13T21:02:24.583Z,5.33
2019-01-13T21:04:25.505Z,5.33
2019-01-13T21:06:30.920Z,5.32
2019-01-13T21:08:29.239Z,5.50
2019-01-13T21:10:30.192Z,5.48
2019-01-13T21:12:30.899Z,5.45
2019-01-13T21:14:31.849Z,5.54
2019-01-13T21:16:32.925Z,5.51
2019-01-13T21:18:33.683Z,5.49
2019-01-13T21:20:52.751Z,5.55
2019-01-13T21:22:53.825Z,5.67
2019-01-13T21:24:54.750Z,5.69
2019-01-13T21:26:55.427Z,5.79
2019-01-13T21:28:56.258Z,5.73
2019-01-13T21:30:57.010Z,5.76
2019-01-13T21:33:12.354Z,5.87
2019-01-13T21:35:13.712Z,5.90
2019-01-13T21:37:15.391Z,5.82
2019-01-13T21:39:16.125Z,5.84
2019-01-13T21:41:17.315Z,5.87
2019-01-13T21:43:18.492Z,5.79
2019-01-13T21:45:21.086Z,5.79
2019-01-13T21:47:22.344Z,5.81
2019-01-13T21:49:24.416Z,5.81
2019-01-13T21:51:25.388Z,5.85
2019-01-13T21:53:33.879Z,5.86
2019-01-13T21:55:34.641Z,6.03
2019-01-13T21:57:35.508Z,5.88
2019-01-13T21:59:36.522Z,5.91
2019-01-13T22:01:37.569Z,5.89
2019-01-13T22:03:39.311Z,5.84
2019-01-13T22:05:41.188Z,5.87
2019-01-13T22:07:42.554Z,5.92
2019-01-13T22:09:44.524Z,5.95
2019-01-13T22:11:45.395Z,5.93
2019-01-13T22:13:48.885Z,6.03
2019-01-13T22:15:52.290Z,6.02
2019-01-13T22:17:54.401Z,6.08
2019-01-13T22:20:05.666Z,5.91
2019-01-13T22:21:58.206Z,6.00
2019-01-13T22:23:59.008Z,5.97
2019-01-13T22:26:06.308Z,6.13
2019-01-13T22:28:07.341Z,6.21
2019-01-13T22:30:17.935Z,6.12
2019-01-13T22:32:18.874Z,6.06
2019-01-13T22:34:19.957Z,6.05
2019-01-13T22:36:22.007Z,6.00
2019-01-13T22:38:24.816Z,5.99
2019-01-13T22:40:25.779Z,5.94
2019-01-13T22:42:52.338Z,5.91
2019-01-13T22:45:24.813Z,6.02
2019-01-13T22:47:30.944Z,5.95
2019-01-13T22:49:40.837Z,6.03
2019-01-13T22:51:41.763Z,6.14
2019-01-13T22:56:54.229Z,6.26
2019-01-13T22:58:41.930Z,6.27
2019-01-13T23:00:46.934Z,6.24
2019-01-13T23:02:50.265Z,6.15
2019-01-13T23:04:51.153Z,6.17
2019-01-13T23:06:52.096Z,6.18
2019-01-13T23:08:53.938Z,6.08
2019-01-13T23:10:54.797Z,6.11
2019-01-13T23:12:56.631Z,6.19
2019-01-13T23:14:57.612Z,6.22
2019-01-13T23:20:17.750Z,6.13
2019-01-13T23:22:18.905Z,6.21
2019-01-13T23:24:19.752Z,6.36
2019-01-13T23:26:20.939Z,6.37
2019-01-13T23:28:25.201Z,6.33
2019-01-13T23:35:34.641Z,6.42
2019-01-13T23:37:36.613Z,6.38
2019-01-13T23:39:40.844Z,6.36
2019-01-13T23:41:41.572Z,6.29
2019-01-13T23:43:44.245Z,6.26
2019-01-13T23:45:45.339Z,6.28
2019-01-13T23:47:49.463Z,6.29
2019-01-13T23:51:24.941Z,6.31
2019-01-13T23:52:24.589Z,6.40
2019-01-13T23:54:25.632Z,6.37
2019-01-13T23:56:26.455Z,6.41
2019-01-13T23:58:27.579Z,6.33
